sensor_id;sensor_type;location;lat;lon;timestamp;P1;durP1;ratioP1;P2;durP2;ratioP2
59159;SDS011;44941;45.058;20.076;2023-04-19T00:01:29;16.15;;;8.73;;
59159;SDS011;44941;45.058;20.076;2023-04-19T00:03:58;16.23;;;8.30;;
59159;SDS011;44941;45.058;20.076;2023-04-19T00:06:24;16.60;;;8.82;;
59159;SDS011;44941;45.058;20.076;2023-04-19T00:09:02;14.18;;;8.65;;
59159;SDS011;44941;45.058;20.076;2023-04-19T00:11:28;12.30;;;7.97;;
59159;SDS011;44941;45.058;20.076;2023-04-19T00:13:54;13.13;;;8.00;;
59159;SDS011;44941;45.058;20.076;2023-04-19T00:16:20;11.40;;;7.78;;
59159;SDS011;44941;45.058;20.076;2023-04-19T00:18:47;11.15;;;7.32;;
59159;SDS011;44941;45.058;20.076;2023-04-19T00:21:13;11.55;;;8.20;;
59159;SDS011;44941;45.058;20.076;2023-04-19T00:23:39;11.95;;;8.27;;
59159;SDS011;44941;45.058;20.076;2023-04-19T00:26:05;12.80;;;8.63;;
59159;SDS011;44941;45.058;20.076;2023-04-19T00:28:32;11.48;;;8.00;;
59159;SDS011;44941;45.058;20.076;2023-04-19T00:30:59;12.65;;;8.50;;
59159;SDS011;44941;45.058;20.076;2023-04-19T00:33:25;11.88;;;8.52;;
59159;SDS011;44941;45.058;20.076;2023-04-19T00:35:51;12.63;;;9.45;;
59159;SDS011;44941;45.058;20.076;2023-04-19T00:38:17;13.48;;;9.82;;
59159;SDS011;44941;45.058;20.076;2023-04-19T00:40:43;15.85;;;9.98;;
59159;SDS011;44941;45.058;20.076;2023-04-19T00:43:10;15.27;;;10.17;;
59159;SDS011;44941;45.058;20.076;2023-04-19T00:45:36;18.90;;;10.82;;
59159;SDS011;44941;45.058;20.076;2023-04-19T00:48:02;15.30;;;10.88;;
59159;SDS011;44941;45.058;20.076;2023-04-19T00:50:29;15.70;;;11.65;;
59159;SDS011;44941;45.058;20.076;2023-04-19T00:52:55;17.05;;;11.15;;
59159;SDS011;44941;45.058;20.076;2023-04-19T00:55:22;17.80;;;11.70;;
59159;SDS011;44941;45.058;20.076;2023-04-19T00:57:48;16.40;;;11.93;;
59159;SDS011;44941;45.058;20.076;2023-04-19T01:00:16;16.02;;;11.85;;
59159;SDS011;44941;45.058;20.076;2023-04-19T01:02:42;17.40;;;11.90;;
59159;SDS011;44941;45.058;20.076;2023-04-19T01:05:08;17.15;;;11.50;;
59159;SDS011;44941;45.058;20.076;2023-04-19T01:07:34;16.65;;;11.93;;
59159;SDS011;44941;45.058;20.076;2023-04-19T01:10:00;16.33;;;11.73;;
59159;SDS011;44941;45.058;20.076;2023-04-19T01:12:26;14.68;;;10.35;;
59159;SDS011;44941;45.058;20.076;2023-04-19T01:14:52;17.05;;;12.20;;
59159;SDS011;44941;45.058;20.076;2023-04-19T01:17:18;15.80;;;12.07;;
59159;SDS011;44941;45.058;20.076;2023-04-19T01:19:45;15.98;;;12.07;;
59159;SDS011;44941;45.058;20.076;2023-04-19T01:22:20;17.45;;;11.93;;
59159;SDS011;44941;45.058;20.076;2023-04-19T01:24:53;16.48;;;11.85;;
59159;SDS011;44941;45.058;20.076;2023-04-19T01:27:20;17.52;;;12.15;;
59159;SDS011;44941;45.058;20.076;2023-04-19T01:29:47;16.65;;;12.30;;
59159;SDS011;44941;45.058;20.076;2023-04-19T01:32:14;17.15;;;12.60;;
59159;SDS011;44941;45.058;20.076;2023-04-19T01:34:41;17.40;;;12.05;;
59159;SDS011;44941;45.058;20.076;2023-04-19T01:37:07;16.13;;;12.18;;
59159;SDS011;44941;45.058;20.076;2023-04-19T01:39:33;16.00;;;12.30;;
59159;SDS011;44941;45.058;20.076;2023-04-19T01:41:59;15.93;;;11.05;;
59159;SDS011;44941;45.058;20.076;2023-04-19T01:44:27;18.63;;;12.30;;
59159;SDS011;44941;45.058;20.076;2023-04-19T01:46:53;15.27;;;11.60;;
59159;SDS011;44941;45.058;20.076;2023-04-19T01:49:20;16.05;;;11.10;;
59159;SDS011;44941;45.058;20.076;2023-04-19T01:51:46;15.15;;;10.02;;
59159;SDS011;44941;45.058;20.076;2023-04-19T01:54:12;15.07;;;10.73;;
59159;SDS011;44941;45.058;20.076;2023-04-19T01:56:38;16.65;;;10.63;;
59159;SDS011;44941;45.058;20.076;2023-04-19T01:59:04;14.85;;;10.52;;
59159;SDS011;44941;45.058;20.076;2023-04-19T02:01:30;16.10;;;10.75;;
59159;SDS011;44941;45.058;20.076;2023-04-19T02:03:56;14.38;;;10.32;;
59159;SDS011;44941;45.058;20.076;2023-04-19T02:06:22;15.85;;;10.70;;
59159;SDS011;44941;45.058;20.076;2023-04-19T02:08:48;13.90;;;9.95;;
59159;SDS011;44941;45.058;20.076;2023-04-19T02:11:14;14.65;;;10.18;;
59159;SDS011;44941;45.058;20.076;2023-04-19T02:13:41;15.07;;;9.65;;
59159;SDS011;44941;45.058;20.076;2023-04-19T02:16:07;12.88;;;9.45;;
59159;SDS011;44941;45.058;20.076;2023-04-19T02:18:34;15.15;;;9.35;;
59159;SDS011;44941;45.058;20.076;2023-04-19T02:21:02;14.50;;;8.40;;
59159;SDS011;44941;45.058;20.076;2023-04-19T02:23:28;12.98;;;9.32;;
59159;SDS011;44941;45.058;20.076;2023-04-19T02:25:54;10.68;;;8.23;;
59159;SDS011;44941;45.058;20.076;2023-04-19T02:28:21;10.70;;;7.97;;
59159;SDS011;44941;45.058;20.076;2023-04-19T02:30:47;12.23;;;7.95;;
59159;SDS011;44941;45.058;20.076;2023-04-19T02:33:13;10.98;;;7.00;;
59159;SDS011;44941;45.058;20.076;2023-04-19T02:35:39;11.25;;;6.90;;
59159;SDS011;44941;45.058;20.076;2023-04-19T02:38:05;10.27;;;7.10;;
59159;SDS011;44941;45.058;20.076;2023-04-19T02:40:31;14.60;;;6.82;;
59159;SDS011;44941;45.058;20.076;2023-04-19T02:42:58;11.60;;;6.57;;
59159;SDS011;44941;45.058;20.076;2023-04-19T02:45:24;13.77;;;6.82;;
59159;SDS011;44941;45.058;20.076;2023-04-19T02:47:50;10.85;;;6.28;;
59159;SDS011;44941;45.058;20.076;2023-04-19T02:50:16;13.02;;;5.65;;
59159;SDS011;44941;45.058;20.076;2023-04-19T02:52:42;8.93;;;5.43;;
59159;SDS011;44941;45.058;20.076;2023-04-19T02:55:14;8.95;;;5.63;;
59159;SDS011;44941;45.058;20.076;2023-04-19T02:57:40;8.15;;;5.20;;
59159;SDS011;44941;45.058;20.076;2023-04-19T03:00:07;8.68;;;5.13;;
59159;SDS011;44941;45.058;20.076;2023-04-19T03:02:33;8.02;;;4.70;;
59159;SDS011;44941;45.058;20.076;2023-04-19T03:04:59;11.63;;;4.70;;
59159;SDS011;44941;45.058;20.076;2023-04-19T03:07:25;11.75;;;4.22;;
59159;SDS011;44941;45.058;20.076;2023-04-19T03:09:51;6.78;;;4.20;;
59159;SDS011;44941;45.058;20.076;2023-04-19T03:12:17;9.68;;;4.78;;
59159;SDS011;44941;45.058;20.076;2023-04-19T03:14:43;7.55;;;4.00;;
59159;SDS011;44941;45.058;20.076;2023-04-19T03:17:09;7.18;;;3.80;;
59159;SDS011;44941;45.058;20.076;2023-04-19T03:19:35;8.23;;;4.93;;
59159;SDS011;44941;45.058;20.076;2023-04-19T03:22:01;9.85;;;4.28;;
59159;SDS011;44941;45.058;20.076;2023-04-19T03:24:34;8.30;;;4.10;;
59159;SDS011;44941;45.058;20.076;2023-04-19T03:27:00;11.73;;;4.45;;
59159;SDS011;44941;45.058;20.076;2023-04-19T03:29:27;9.30;;;4.05;;
59159;SDS011;44941;45.058;20.076;2023-04-19T03:31:53;11.70;;;4.05;;
59159;SDS011;44941;45.058;20.076;2023-04-19T03:34:19;8.98;;;3.20;;
59159;SDS011;44941;45.058;20.076;2023-04-19T03:36:45;6.97;;;3.40;;
59159;SDS011;44941;45.058;20.076;2023-04-19T03:39:11;8.63;;;3.45;;
59159;SDS011;44941;45.058;20.076;2023-04-19T03:41:38;7.70;;;3.63;;
59159;SDS011;44941;45.058;20.076;2023-04-19T03:44:05;10.43;;;4.13;;
59159;SDS011;44941;45.058;20.076;2023-04-19T03:46:31;7.65;;;3.40;;
59159;SDS011;44941;45.058;20.076;2023-04-19T03:48:57;8.50;;;3.97;;
59159;SDS011;44941;45.058;20.076;2023-04-19T03:51:23;7.63;;;4.03;;
59159;SDS011;44941;45.058;20.076;2023-04-19T03:53:51;12.93;;;4.33;;
59159;SDS011;44941;45.058;20.076;2023-04-19T03:56:17;13.90;;;4.30;;
59159;SDS011;44941;45.058;20.076;2023-04-19T03:58:43;7.85;;;3.63;;
59159;SDS011;44941;45.058;20.076;2023-04-19T04:01:19;9.18;;;3.70;;
59159;SDS011;44941;45.058;20.076;2023-04-19T04:03:45;8.20;;;3.33;;
59159;SDS011;44941;45.058;20.076;2023-04-19T04:06:11;8.55;;;4.03;;
59159;SDS011;44941;45.058;20.076;2023-04-19T04:08:37;12.30;;;3.67;;
59159;SDS011;44941;45.058;20.076;2023-04-19T04:11:04;10.20;;;3.22;;
59159;SDS011;44941;45.058;20.076;2023-04-19T04:13:30;8.55;;;3.33;;
59159;SDS011;44941;45.058;20.076;2023-04-19T04:15:56;5.65;;;3.00;;
59159;SDS011;44941;45.058;20.076;2023-04-19T04:18:22;11.18;;;3.15;;
59159;SDS011;44941;45.058;20.076;2023-04-19T04:20:48;7.30;;;3.20;;
59159;SDS011;44941;45.058;20.076;2023-04-19T04:23:14;13.52;;;3.58;;
59159;SDS011;44941;45.058;20.076;2023-04-19T04:25:40;8.18;;;3.58;;
59159;SDS011;44941;45.058;20.076;2023-04-19T04:28:06;6.82;;;3.20;;
59159;SDS011;44941;45.058;20.076;2023-04-19T04:30:33;7.95;;;3.42;;
59159;SDS011;44941;45.058;20.076;2023-04-19T04:33:00;8.65;;;3.10;;
59159;SDS011;44941;45.058;20.076;2023-04-19T04:35:26;9.77;;;3.90;;
59159;SDS011;44941;45.058;20.076;2023-04-19T04:37:53;7.97;;;3.75;;
59159;SDS011;44941;45.058;20.076;2023-04-19T04:40:21;9.57;;;3.40;;
59159;SDS011;44941;45.058;20.076;2023-04-19T04:42:48;6.05;;;3.08;;
59159;SDS011;44941;45.058;20.076;2023-04-19T04:45:16;8.48;;;3.08;;
59159;SDS011;44941;45.058;20.076;2023-04-19T04:47:43;9.80;;;3.90;;
59159;SDS011;44941;45.058;20.076;2023-04-19T04:50:12;15.93;;;4.55;;
59159;SDS011;44941;45.058;20.076;2023-04-19T04:52:38;10.57;;;4.65;;
59159;SDS011;44941;45.058;20.076;2023-04-19T04:55:22;9.15;;;4.70;;
59159;SDS011;44941;45.058;20.076;2023-04-19T04:57:48;10.90;;;5.72;;
59159;SDS011;44941;45.058;20.076;2023-04-19T05:00:14;10.13;;;4.35;;
59159;SDS011;44941;45.058;20.076;2023-04-19T05:02:41;8.52;;;4.03;;
59159;SDS011;44941;45.058;20.076;2023-04-19T05:05:07;7.85;;;3.30;;
59159;SDS011;44941;45.058;20.076;2023-04-19T05:07:35;9.65;;;3.53;;
59159;SDS011;44941;45.058;20.076;2023-04-19T05:10:10;7.30;;;3.13;;
59159;SDS011;44941;45.058;20.076;2023-04-19T05:12:37;6.65;;;3.35;;
59159;SDS011;44941;45.058;20.076;2023-04-19T05:15:03;10.27;;;3.45;;
59159;SDS011;44941;45.058;20.076;2023-04-19T05:17:29;7.90;;;3.17;;
59159;SDS011;44941;45.058;20.076;2023-04-19T05:19:55;7.50;;;3.63;;
59159;SDS011;44941;45.058;20.076;2023-04-19T05:22:21;5.70;;;3.05;;
59159;SDS011;44941;45.058;20.076;2023-04-19T05:24:47;6.60;;;3.10;;
59159;SDS011;44941;45.058;20.076;2023-04-19T05:27:14;7.60;;;2.90;;
59159;SDS011;44941;45.058;20.076;2023-04-19T05:29:40;5.88;;;2.72;;
59159;SDS011;44941;45.058;20.076;2023-04-19T05:32:06;8.55;;;3.63;;
59159;SDS011;44941;45.058;20.076;2023-04-19T05:34:33;7.95;;;3.22;;
59159;SDS011;44941;45.058;20.076;2023-04-19T05:37:00;7.57;;;3.22;;
59159;SDS011;44941;45.058;20.076;2023-04-19T05:39:27;8.88;;;3.22;;
59159;SDS011;44941;45.058;20.076;2023-04-19T05:41:53;6.05;;;2.80;;
59159;SDS011;44941;45.058;20.076;2023-04-19T05:44:19;9.38;;;3.17;;
59159;SDS011;44941;45.058;20.076;2023-04-19T05:46:45;8.90;;;3.25;;
59159;SDS011;44941;45.058;20.076;2023-04-19T05:49:11;10.38;;;3.70;;
59159;SDS011;44941;45.058;20.076;2023-04-19T05:51:37;9.23;;;3.63;;
59159;SDS011;44941;45.058;20.076;2023-04-19T05:54:03;8.73;;;3.47;;
59159;SDS011;44941;45.058;20.076;2023-04-19T05:56:29;8.45;;;3.15;;
59159;SDS011;44941;45.058;20.076;2023-04-19T05:58:55;6.38;;;3.00;;
59159;SDS011;44941;45.058;20.076;2023-04-19T06:01:22;7.15;;;3.00;;
59159;SDS011;44941;45.058;20.076;2023-04-19T06:03:48;6.20;;;3.13;;
59159;SDS011;44941;45.058;20.076;2023-04-19T06:06:17;7.28;;;3.10;;
59159;SDS011;44941;45.058;20.076;2023-04-19T06:08:43;9.05;;;3.35;;
59159;SDS011;44941;45.058;20.076;2023-04-19T06:11:09;8.65;;;3.30;;
59159;SDS011;44941;45.058;20.076;2023-04-19T06:13:36;6.32;;;3.38;;
59159;SDS011;44941;45.058;20.076;2023-04-19T06:16:02;8.93;;;3.17;;
59159;SDS011;44941;45.058;20.076;2023-04-19T06:18:28;10.10;;;2.83;;
59159;SDS011;44941;45.058;20.076;2023-04-19T06:20:54;8.13;;;3.00;;
59159;SDS011;44941;45.058;20.076;2023-04-19T06:23:20;5.90;;;2.70;;
59159;SDS011;44941;45.058;20.076;2023-04-19T06:25:59;5.22;;;2.70;;
59159;SDS011;44941;45.058;20.076;2023-04-19T06:28:25;9.00;;;3.35;;
59159;SDS011;44941;45.058;20.076;2023-04-19T06:30:51;7.57;;;2.95;;
59159;SDS011;44941;45.058;20.076;2023-04-19T06:33:18;6.13;;;2.78;;
59159;SDS011;44941;45.058;20.076;2023-04-19T06:35:44;7.88;;;3.13;;
59159;SDS011;44941;45.058;20.076;2023-04-19T06:38:10;7.70;;;3.00;;
59159;SDS011;44941;45.058;20.076;2023-04-19T06:40:36;5.88;;;2.70;;
59159;SDS011;44941;45.058;20.076;2023-04-19T06:43:02;5.10;;;2.72;;
59159;SDS011;44941;45.058;20.076;2023-04-19T06:45:28;5.88;;;2.70;;
59159;SDS011;44941;45.058;20.076;2023-04-19T06:47:54;8.18;;;3.28;;
59159;SDS011;44941;45.058;20.076;2023-04-19T06:50:20;5.65;;;2.78;;
59159;SDS011;44941;45.058;20.076;2023-04-19T06:52:46;10.18;;;3.53;;
59159;SDS011;44941;45.058;20.076;2023-04-19T06:55:12;5.43;;;2.88;;
59159;SDS011;44941;45.058;20.076;2023-04-19T06:57:38;6.07;;;2.80;;
59159;SDS011;44941;45.058;20.076;2023-04-19T07:00:05;5.60;;;2.83;;
59159;SDS011;44941;45.058;20.076;2023-04-19T07:02:31;13.35;;;4.97;;
59159;SDS011;44941;45.058;20.076;2023-04-19T07:04:58;9.68;;;3.08;;
59159;SDS011;44941;45.058;20.076;2023-04-19T07:07:24;9.85;;;3.47;;
59159;SDS011;44941;45.058;20.076;2023-04-19T07:09:50;6.80;;;3.20;;
59159;SDS011;44941;45.058;20.076;2023-04-19T07:12:17;7.57;;;3.08;;
59159;SDS011;44941;45.058;20.076;2023-04-19T07:14:43;9.48;;;3.47;;
59159;SDS011;44941;45.058;20.076;2023-04-19T07:17:09;6.22;;;2.90;;
59159;SDS011;44941;45.058;20.076;2023-04-19T07:34:31;10.40;;;3.92;;
59159;SDS011;44941;45.058;20.076;2023-04-19T07:36:57;8.25;;;3.63;;
59159;SDS011;44941;45.058;20.076;2023-04-19T07:39:23;9.27;;;3.58;;
59159;SDS011;44941;45.058;20.076;2023-04-19T07:41:49;8.50;;;3.20;;
59159;SDS011;44941;45.058;20.076;2023-04-19T07:44:15;7.13;;;3.22;;
59159;SDS011;44941;45.058;20.076;2023-04-19T07:46:41;8.93;;;3.20;;
59159;SDS011;44941;45.058;20.076;2023-04-19T07:49:11;9.85;;;3.05;;
59159;SDS011;44941;45.058;20.076;2023-04-19T07:51:37;6.53;;;3.03;;
59159;SDS011;44941;45.058;20.076;2023-04-19T07:54:03;6.68;;;2.90;;
59159;SDS011;44941;45.058;20.076;2023-04-19T07:56:29;9.23;;;3.70;;
59159;SDS011;44941;45.058;20.076;2023-04-19T07:58:55;7.22;;;3.63;;
59159;SDS011;44941;45.058;20.076;2023-04-19T08:01:21;9.50;;;3.63;;
59159;SDS011;44941;45.058;20.076;2023-04-19T08:03:47;6.28;;;3.00;;
59159;SDS011;44941;45.058;20.076;2023-04-19T08:06:13;7.88;;;3.05;;
59159;SDS011;44941;45.058;20.076;2023-04-19T08:08:39;7.93;;;3.00;;
59159;SDS011;44941;45.058;20.076;2023-04-19T08:11:05;8.90;;;3.38;;
59159;SDS011;44941;45.058;20.076;2023-04-19T08:13:31;10.88;;;3.35;;
59159;SDS011;44941;45.058;20.076;2023-04-19T08:15:57;6.47;;;3.55;;
59159;SDS011;44941;45.058;20.076;2023-04-19T08:18:24;8.18;;;2.95;;
59159;SDS011;44941;45.058;20.076;2023-04-19T08:20:50;7.40;;;3.75;;
59159;SDS011;44941;45.058;20.076;2023-04-19T08:23:16;8.10;;;3.65;;
59159;SDS011;44941;45.058;20.076;2023-04-19T08:25:42;8.07;;;3.08;;
59159;SDS011;44941;45.058;20.076;2023-04-19T08:28:09;10.77;;;3.72;;
59159;SDS011;44941;45.058;20.076;2023-04-19T08:30:36;8.15;;;3.33;;
59159;SDS011;44941;45.058;20.076;2023-04-19T08:33:02;7.50;;;3.53;;
59159;SDS011;44941;45.058;20.076;2023-04-19T08:35:28;7.80;;;3.85;;
59159;SDS011;44941;45.058;20.076;2023-04-19T08:37:54;6.18;;;3.00;;
59159;SDS011;44941;45.058;20.076;2023-04-19T08:40:21;5.88;;;2.97;;
59159;SDS011;44941;45.058;20.076;2023-04-19T08:42:47;6.53;;;3.33;;
59159;SDS011;44941;45.058;20.076;2023-04-19T08:45:14;7.20;;;3.38;;
59159;SDS011;44941;45.058;20.076;2023-04-19T08:47:40;8.50;;;3.10;;
59159;SDS011;44941;45.058;20.076;2023-04-19T08:50:07;8.55;;;3.65;;
59159;SDS011;44941;45.058;20.076;2023-04-19T08:52:34;8.00;;;3.05;;
59159;SDS011;44941;45.058;20.076;2023-04-19T08:55:01;7.18;;;3.15;;
59159;SDS011;44941;45.058;20.076;2023-04-19T08:57:29;9.25;;;3.00;;
59159;SDS011;44941;45.058;20.076;2023-04-19T08:59:55;8.48;;;3.22;;
59159;SDS011;44941;45.058;20.076;2023-04-19T09:02:22;9.32;;;3.25;;
59159;SDS011;44941;45.058;20.076;2023-04-19T09:04:48;13.13;;;3.45;;
59159;SDS011;44941;45.058;20.076;2023-04-19T09:07:24;7.90;;;2.92;;
59159;SDS011;44941;45.058;20.076;2023-04-19T09:10:03;7.22;;;3.35;;
59159;SDS011;44941;45.058;20.076;2023-04-19T09:12:30;6.30;;;3.10;;
59159;SDS011;44941;45.058;20.076;2023-04-19T09:14:56;6.95;;;3.00;;
59159;SDS011;44941;45.058;20.076;2023-04-19T09:17:22;6.65;;;3.05;;
59159;SDS011;44941;45.058;20.076;2023-04-19T09:19:48;7.15;;;3.20;;
59159;SDS011;44941;45.058;20.076;2023-04-19T09:22:15;7.22;;;3.20;;
59159;SDS011;44941;45.058;20.076;2023-04-19T09:24:41;7.40;;;2.90;;
59159;SDS011;44941;45.058;20.076;2023-04-19T09:27:07;7.95;;;3.22;;
59159;SDS011;44941;45.058;20.076;2023-04-19T09:29:36;5.35;;;2.80;;
59159;SDS011;44941;45.058;20.076;2023-04-19T09:32:02;8.52;;;3.85;;
59159;SDS011;44941;45.058;20.076;2023-04-19T09:34:28;6.97;;;2.95;;
59159;SDS011;44941;45.058;20.076;2023-04-19T09:36:55;6.97;;;2.80;;
59159;SDS011;44941;45.058;20.076;2023-04-19T09:39:30;6.70;;;3.13;;
59159;SDS011;44941;45.058;20.076;2023-04-19T09:41:57;7.10;;;3.05;;
59159;SDS011;44941;45.058;20.076;2023-04-19T09:44:23;7.40;;;2.45;;
59159;SDS011;44941;45.058;20.076;2023-04-19T09:46:49;6.80;;;2.38;;
59159;SDS011;44941;45.058;20.076;2023-04-19T09:51:56;5.13;;;1.95;;
59159;SDS011;44941;45.058;20.076;2023-04-19T09:54:24;9.05;;;2.75;;
59159;SDS011;44941;45.058;20.076;2023-04-19T09:56:54;8.63;;;2.50;;
59159;SDS011;44941;45.058;20.076;2023-04-19T09:59:20;6.88;;;2.65;;
59159;SDS011;44941;45.058;20.076;2023-04-19T10:01:51;5.97;;;2.25;;
59159;SDS011;44941;45.058;20.076;2023-04-19T10:04:18;9.27;;;2.58;;
59159;SDS011;44941;45.058;20.076;2023-04-19T10:06:48;6.93;;;2.35;;
59159;SDS011;44941;45.058;20.076;2023-04-19T10:09:15;7.28;;;2.88;;
59159;SDS011;44941;45.058;20.076;2023-04-19T10:11:44;7.45;;;3.28;;
59159;SDS011;44941;45.058;20.076;2023-04-19T10:14:11;7.03;;;2.67;;
59159;SDS011;44941;45.058;20.076;2023-04-19T10:16:39;5.63;;;2.90;;
59159;SDS011;44941;45.058;20.076;2023-04-19T10:19:07;8.90;;;2.78;;
59159;SDS011;44941;45.058;20.076;2023-04-19T10:21:33;10.00;;;3.28;;
59159;SDS011;44941;45.058;20.076;2023-04-19T10:24:00;7.50;;;3.17;;
59159;SDS011;44941;45.058;20.076;2023-04-19T10:26:26;6.40;;;2.50;;
59159;SDS011;44941;45.058;20.076;2023-04-19T10:28:53;5.10;;;2.05;;
59159;SDS011;44941;45.058;20.076;2023-04-19T10:31:20;8.45;;;2.35;;
59159;SDS011;44941;45.058;20.076;2023-04-19T10:33:48;6.10;;;3.05;;
59159;SDS011;44941;45.058;20.076;2023-04-19T10:36:15;5.20;;;2.30;;
59159;SDS011;44941;45.058;20.076;2023-04-19T10:38:45;4.40;;;1.90;;
59159;SDS011;44941;45.058;20.076;2023-04-19T10:41:12;5.75;;;2.65;;
59159;SDS011;44941;45.058;20.076;2023-04-19T10:43:39;7.90;;;1.90;;
59159;SDS011;44941;45.058;20.076;2023-04-19T10:48:36;5.50;;;2.10;;
59159;SDS011;44941;45.058;20.076;2023-04-19T10:51:15;6.88;;;1.92;;
59159;SDS011;44941;45.058;20.076;2023-04-19T10:53:44;7.80;;;1.90;;
59159;SDS011;44941;45.058;20.076;2023-04-19T10:56:10;6.70;;;2.40;;
59159;SDS011;44941;45.058;20.076;2023-04-19T11:04:10;6.43;;;2.50;;
59159;SDS011;44941;45.058;20.076;2023-04-19T11:06:37;8.32;;;3.10;;
59159;SDS011;44941;45.058;20.076;2023-04-19T11:09:03;7.53;;;3.10;;
59159;SDS011;44941;45.058;20.076;2023-04-19T11:11:37;7.55;;;2.75;;
59159;SDS011;44941;45.058;20.076;2023-04-19T11:14:04;6.47;;;2.95;;
59159;SDS011;44941;45.058;20.076;2023-04-19T11:16:32;6.35;;;2.97;;
59159;SDS011;44941;45.058;20.076;2023-04-19T11:18:58;9.55;;;3.40;;
59159;SDS011;44941;45.058;20.076;2023-04-19T11:21:25;6.35;;;2.85;;
59159;SDS011;44941;45.058;20.076;2023-04-19T11:24:05;10.52;;;3.70;;
59159;SDS011;44941;45.058;20.076;2023-04-19T11:26:32;6.18;;;3.10;;
59159;SDS011;44941;45.058;20.076;2023-04-19T11:28:58;6.78;;;3.22;;
59159;SDS011;44941;45.058;20.076;2023-04-19T11:31:25;8.18;;;3.80;;
59159;SDS011;44941;45.058;20.076;2023-04-19T11:33:51;12.25;;;4.90;;
59159;SDS011;44941;45.058;20.076;2023-04-19T11:36:18;10.43;;;4.82;;
59159;SDS011;44941;45.058;20.076;2023-04-19T11:38:47;9.55;;;4.53;;
59159;SDS011;44941;45.058;20.076;2023-04-19T11:41:14;9.82;;;4.25;;
59159;SDS011;44941;45.058;20.076;2023-04-19T11:43:40;10.85;;;4.82;;
59159;SDS011;44941;45.058;20.076;2023-04-19T11:46:09;10.38;;;5.43;;
59159;SDS011;44941;45.058;20.076;2023-04-19T11:48:36;9.10;;;5.07;;
59159;SDS011;44941;45.058;20.076;2023-04-19T11:51:02;11.60;;;5.68;;
59159;SDS011;44941;45.058;20.076;2023-04-19T11:53:31;14.85;;;7.28;;
59159;SDS011;44941;45.058;20.076;2023-04-19T11:56:05;10.82;;;5.78;;
59159;SDS011;44941;45.058;20.076;2023-04-19T11:58:32;13.63;;;4.65;;
59159;SDS011;44941;45.058;20.076;2023-04-19T12:03:30;9.30;;;4.35;;
59159;SDS011;44941;45.058;20.076;2023-04-19T12:06:00;6.65;;;3.90;;
59159;SDS011;44941;45.058;20.076;2023-04-19T12:08:33;6.43;;;3.60;;
59159;SDS011;44941;45.058;20.076;2023-04-19T12:11:00;7.60;;;4.10;;
59159;SDS011;44941;45.058;20.076;2023-04-19T12:13:30;10.25;;;4.20;;
59159;SDS011;44941;45.058;20.076;2023-04-19T12:15:56;10.57;;;4.47;;
59159;SDS011;44941;45.058;20.076;2023-04-19T12:18:22;7.28;;;4.18;;
59159;SDS011;44941;45.058;20.076;2023-04-19T12:20:49;8.55;;;4.47;;
59159;SDS011;44941;45.058;20.076;2023-04-19T12:23:16;7.03;;;3.63;;
59159;SDS011;44941;45.058;20.076;2023-04-19T12:25:44;6.93;;;3.70;;
59159;SDS011;44941;45.058;20.076;2023-04-19T12:28:11;11.27;;;3.83;;
59159;SDS011;44941;45.058;20.076;2023-04-19T12:30:37;12.00;;;4.22;;
59159;SDS011;44941;45.058;20.076;2023-04-19T12:33:03;7.35;;;3.47;;
59159;SDS011;44941;45.058;20.076;2023-04-19T12:35:30;9.52;;;3.78;;
59159;SDS011;44941;45.058;20.076;2023-04-19T12:38:00;7.57;;;3.40;;
59159;SDS011;44941;45.058;20.076;2023-04-19T12:40:27;6.40;;;3.10;;
59159;SDS011;44941;45.058;20.076;2023-04-19T12:42:53;6.28;;;3.20;;
59159;SDS011;44941;45.058;20.076;2023-04-19T12:45:19;6.63;;;3.00;;
59159;SDS011;44941;45.058;20.076;2023-04-19T12:47:46;6.53;;;3.35;;
59159;SDS011;44941;45.058;20.076;2023-04-19T12:50:13;11.00;;;3.25;;
59159;SDS011;44941;45.058;20.076;2023-04-19T12:52:40;12.00;;;4.10;;
59159;SDS011;44941;45.058;20.076;2023-04-19T12:55:06;8.02;;;4.07;;
59159;SDS011;44941;45.058;20.076;2023-04-19T12:57:33;8.80;;;3.42;;
59159;SDS011;44941;45.058;20.076;2023-04-19T12:59:59;9.35;;;4.35;;
59159;SDS011;44941;45.058;20.076;2023-04-19T13:02:25;11.10;;;4.57;;
59159;SDS011;44941;45.058;20.076;2023-04-19T13:04:51;12.88;;;6.25;;
59159;SDS011;44941;45.058;20.076;2023-04-19T13:07:17;11.93;;;5.95;;
59159;SDS011;44941;45.058;20.076;2023-04-19T13:09:43;11.77;;;5.28;;
59159;SDS011;44941;45.058;20.076;2023-04-19T13:12:09;7.65;;;4.28;;
59159;SDS011;44941;45.058;20.076;2023-04-19T13:14:36;9.13;;;4.80;;
59159;SDS011;44941;45.058;20.076;2023-04-19T13:17:02;9.85;;;4.70;;
59159;SDS011;44941;45.058;20.076;2023-04-19T13:19:28;13.32;;;5.45;;
59159;SDS011;44941;45.058;20.076;2023-04-19T13:21:55;11.60;;;4.82;;
59159;SDS011;44941;45.058;20.076;2023-04-19T13:24:21;10.65;;;5.20;;
59159;SDS011;44941;45.058;20.076;2023-04-19T13:26:47;8.40;;;4.88;;
59159;SDS011;44941;45.058;20.076;2023-04-19T13:29:13;11.93;;;6.22;;
59159;SDS011;44941;45.058;20.076;2023-04-19T13:31:39;10.82;;;5.60;;
59159;SDS011;44941;45.058;20.076;2023-04-19T13:36:33;9.43;;;5.30;;
59159;SDS011;44941;45.058;20.076;2023-04-19T13:38:59;14.00;;;5.72;;
59159;SDS011;44941;45.058;20.076;2023-04-19T13:41:25;9.57;;;3.85;;
59159;SDS011;44941;45.058;20.076;2023-04-19T13:43:51;6.70;;;3.10;;
59159;SDS011;44941;45.058;20.076;2023-04-19T13:46:17;7.45;;;3.30;;
59159;SDS011;44941;45.058;20.076;2023-04-19T13:48:43;6.10;;;3.40;;
59159;SDS011;44941;45.058;20.076;2023-04-19T13:51:09;8.23;;;3.95;;
59159;SDS011;44941;45.058;20.076;2023-04-19T13:53:35;10.07;;;4.15;;
59159;SDS011;44941;45.058;20.076;2023-04-19T13:56:02;7.97;;;3.97;;
59159;SDS011;44941;45.058;20.076;2023-04-19T13:58:37;9.07;;;3.60;;
59159;SDS011;44941;45.058;20.076;2023-04-19T14:01:03;9.68;;;3.92;;
59159;SDS011;44941;45.058;20.076;2023-04-19T14:03:29;7.40;;;3.53;;
59159;SDS011;44941;45.058;20.076;2023-04-19T14:05:56;12.15;;;4.18;;
59159;SDS011;44941;45.058;20.076;2023-04-19T14:08:22;11.40;;;4.13;;
59159;SDS011;44941;45.058;20.076;2023-04-19T14:10:49;9.15;;;3.72;;
59159;SDS011;44941;45.058;20.076;2023-04-19T14:13:15;10.18;;;3.65;;
59159;SDS011;44941;45.058;20.076;2023-04-19T14:15:41;10.05;;;3.83;;
59159;SDS011;44941;45.058;20.076;2023-04-19T14:18:07;7.53;;;3.90;;
59159;SDS011;44941;45.058;20.076;2023-04-19T14:20:33;6.63;;;3.53;;
59159;SDS011;44941;45.058;20.076;2023-04-19T14:23:00;10.95;;;3.85;;
59159;SDS011;44941;45.058;20.076;2023-04-19T14:25:27;6.88;;;3.80;;
59159;SDS011;44941;45.058;20.076;2023-04-19T14:30:44;9.40;;;4.15;;
59159;SDS011;44941;45.058;20.076;2023-04-19T14:33:10;11.63;;;3.95;;
59159;SDS011;44941;45.058;20.076;2023-04-19T14:35:36;9.52;;;3.75;;
59159;SDS011;44941;45.058;20.076;2023-04-19T14:38:02;9.27;;;3.90;;
59159;SDS011;44941;45.058;20.076;2023-04-19T14:40:28;9.35;;;4.25;;
59159;SDS011;44941;45.058;20.076;2023-04-19T14:42:54;9.82;;;5.30;;
59159;SDS011;44941;45.058;20.076;2023-04-19T14:45:20;8.85;;;4.72;;
59159;SDS011;44941;45.058;20.076;2023-04-19T14:47:47;11.50;;;5.57;;
59159;SDS011;44941;45.058;20.076;2023-04-19T14:50:13;12.05;;;5.18;;
59159;SDS011;44941;45.058;20.076;2023-04-19T14:52:39;9.95;;;5.07;;
59159;SDS011;44941;45.058;20.076;2023-04-19T14:55:05;12.02;;;4.85;;
59159;SDS011;44941;45.058;20.076;2023-04-19T14:57:32;8.40;;;5.07;;
59159;SDS011;44941;45.058;20.076;2023-04-19T14:59:58;9.07;;;5.07;;